< Typhoon 197405 1974 Season Typhoon 197407 >
Typhoon 197406 (EMMA)
General InformationTrack Information on Google Maps || Disaster Info.ResourceGoogle EarthGE AnimationAtom FeedGeoJSON
Detalied Best Track (Time Zone = UTC)
Year Month Day Hour Lat. Long. Pressure (hPa) Wind (kt) Class Image Chart
1974 6 12 06 8.6 139.6 1004 0 2 -- Chart
1974 6 12 12 9.8 140.1 1005 0 2 -- Chart
1974 6 12 18 10.4 138.5 1004 0 2 -- Chart
1974 6 13 00 11.3 136.6 1000 0 2 -- Chart
1974 6 13 06 11.9 134.6 1000 0 2 -- Chart
1974 6 13 12 12.4 133.3 1000 0 2 -- Chart
1974 6 13 18 12.8 132.0 998 0 2 -- Chart
1974 6 14 00 13.5 131.0 998 0 2 -- Chart
1974 6 14 06 14.4 129.7 998 0 2 -- Chart
1974 6 14 12 14.9 128.7 998 0 2 -- Chart
1974 6 14 18 15.4 127.8 996 0 9 -- Chart
1974 6 15 00 16.0 127.0 994 0 9 -- Chart
1974 6 15 06 16.5 126.0 990 0 9 -- Chart
1974 6 15 12 17.1 125.1 990 0 9 -- Chart
1974 6 15 18 17.5 124.6 994 0 9 -- Chart
1974 6 16 00 17.8 124.3 994 0 9 -- Chart
1974 6 16 06 18.4 123.8 992 0 9 -- Chart
1974 6 16 12 18.9 123.6 992 0 9 -- Chart
1974 6 16 18 19.6 123.6 994 0 9 -- Chart
1974 6 17 00 20.4 124.1 994 0 9 -- Chart
1974 6 17 06 21.1 124.9 994 0 9 -- Chart
1974 6 17 12 22.2 126.0 994 0 9 -- Chart
1974 6 17 18 24.4 127.4 996 0 9 -- Chart
1974 6 18 00 26.3 129.0 1000 0 9 -- Chart
1974 6 18 06 27.6 130.0 1000 0 2 -- Chart
1974 6 18 12 29.0 132.0 1000 0 2 -- Chart
1974 6 18 18 30.8 134.6 1000 0 2 -- Chart
1974 6 19 00 32.4 138.0 1000 0 2 -- Chart
Japan Meteorological Agency Best Track Data | Correction Date : 1989-06-01
< Typhoon 197405 1974 Season Typhoon 197407 >

Help